Time;durP1;ratioP1;P1;durP2;ratioP2;P2;SDS_P1;SDS_P2;PMS_P1;PMS_P2;Temp;Humidity;BMP_temperature;BMP_pressure;BME280_temperature;BME280_humidity;BME280_pressure;Samples;Min_cycle;Max_cycle;Signal;HPM_P1;HPM_P2
2023/04/02 00:00:15;;;;;;;1.52;1.42;;;;;;;4.29;80.60;95376.03;5096269;28;20040;-64
2023/04/02 00:02:48;;;;;;;2.10;1.83;;;;;;;4.22;81.33;95365.03;5096171;28;20513;-65
2023/04/02 00:05:49;;;;;;;1.70;1.60;;;;;;;4.21;81.40;95368.50;5096326;28;20119;-66
2023/04/02 00:08:37;;;;;;;1.60;1.50;;;;;;;4.09;81.68;95369.72;5096230;28;20050;-62
2023/04/02 00:11:05;;;;;;;2.05;1.55;;;;;;;3.96;82.12;95371.84;5096280;28;20127;-66
2023/04/02 00:13:36;;;;;;;3.38;1.55;;;;;;;3.98;82.09;95371.81;5096005;28;20044;-65
2023/04/02 00:16:08;;;;;;;1.95;1.80;;;;;;;3.90;81.76;95359.94;5096114;28;20477;-66
2023/04/02 00:18:41;;;;;;;1.67;1.58;;;;;;;3.85;81.58;95355.81;5095888;28;20044;-65
2023/04/02 00:21:14;;;;;;;2.33;1.40;;;;;;;3.82;81.87;95359.31;5095990;28;20040;-65
2023/04/02 00:23:43;;;;;;;1.77;1.67;;;;;;;3.78;83.12;95358.59;5095753;28;20498;-62
2023/04/02 00:26:30;;;;;;;2.33;1.63;;;;;;;3.71;83.71;95361.41;5095746;28;20044;-64
2023/04/02 00:28:59;;;;;;;1.73;1.63;;;;;;;3.73;83.72;95362.22;5095647;28;20048;-66
2023/04/02 00:31:29;;;;;;;3.15;1.75;;;;;;;3.69;83.68;95364.03;5095702;28;20047;-62
2023/04/02 00:33:58;;;;;;;1.30;1.20;;;;;;;3.70;82.89;95362.28;5095609;28;20054;-63
2023/04/02 00:36:28;;;;;;;3.42;1.88;;;;;;;3.60;82.71;95359.97;5095636;28;20684;-66
2023/04/02 00:38:58;;;;;;;1.95;1.75;;;;;;;3.54;83.03;95365.31;5095495;28;20054;-65
2023/04/02 00:41:29;;;;;;;3.03;2.13;;;;;;;3.52;82.48;95361.91;5095516;28;20054;-62
2023/04/02 00:43:59;;;;;;;1.73;1.45;;;;;;;3.53;82.31;95367.03;5095599;28;20417;-64
2023/04/02 00:46:33;;;;;;;1.83;1.70;;;;;;;3.52;81.77;95369.69;5095085;28;20560;-63
2023/04/02 00:49:07;;;;;;;1.65;1.45;;;;;;;3.51;81.85;95365.41;5095233;28;20048;-63
2023/04/02 00:51:40;;;;;;;2.05;1.60;;;;;;;3.55;81.90;95372.19;5095280;28;20542;-63
2023/04/02 00:54:14;;;;;;;2.40;1.45;;;;;;;3.48;81.77;95381.00;5095164;28;20048;-62
2023/04/02 00:56:44;;;;;;;2.10;1.75;;;;;;;3.45;82.49;95368.16;5095287;28;20132;-64
2023/04/02 00:59:22;;;;;;;2.03;1.83;;;;;;;3.53;82.75;95389.50;5095284;28;20102;-66
2023/04/02 01:02:00;;;;;;;1.75;1.65;;;;;;;3.40;82.84;95386.38;5095086;28;20823;-63
2023/04/02 01:04:33;;;;;;;1.92;1.80;;;;;;;3.40;83.03;95399.31;5094985;28;20051;-65
2023/04/02 01:07:05;;;;;;;1.70;1.60;;;;;;;3.49;83.14;95400.81;5094994;28;20062;-66
2023/04/02 01:10:13;;;;;;;2.08;1.88;;;;;;;3.46;82.69;95398.31;5094971;28;20055;-63
2023/04/02 01:12:53;;;;;;;3.88;3.10;;;;;;;3.32;82.04;95391.78;5095208;28;20113;-62
2023/04/02 01:15:25;;;;;;;2.35;2.00;;;;;;;3.14;82.20;95391.41;5094875;28;20040;-64
2023/04/02 01:18:12;;;;;;;2.33;1.90;;;;;;;3.08;82.75;95398.47;5094683;28;20543;-65
2023/04/02 01:21:02;;;;;;;2.63;2.20;;;;;;;3.12;82.72;95397.47;5094708;28;20401;-64
2023/04/02 01:23:35;;;;;;;3.78;1.83;;;;;;;3.05;82.88;95393.38;5094822;28;20241;-63
2023/04/02 01:26:14;;;;;;;1.92;1.83;;;;;;;3.00;84.03;95396.06;5094631;28;20083;-65
2023/04/02 01:29:01;;;;;;;2.15;1.95;;;;;;;3.10;84.61;95400.09;5094579;28;20044;-63
2023/04/02 01:31:31;;;;;;;5.22;2.20;;;;;;;3.09;85.13;95406.19;5094624;28;20047;-66
2023/04/02 01:34:00;;;;;;;2.35;2.15;;;;;;;3.07;85.35;95399.34;5094481;28;20089;-64
2023/04/02 01:36:35;;;;;;;2.40;2.20;;;;;;;3.05;85.55;95399.41;5094570;28;20048;-66
2023/04/02 01:39:11;;;;;;;2.28;2.08;;;;;;;3.08;86.33;95398.47;5094298;28;20056;-63
2023/04/02 01:41:45;;;;;;;1.90;1.80;;;;;;;3.12;85.28;95398.34;5094322;28;20477;-65
2023/04/02 01:44:21;;;;;;;2.20;1.90;;;;;;;3.12;84.29;95397.47;5094285;28;20048;-61
2023/04/02 01:46:50;;;;;;;2.30;2.10;;;;;;;3.07;84.84;95387.28;5094355;28;20055;-64
2023/04/02 01:49:20;;;;;;;2.28;2.08;;;;;;;3.03;85.01;95380.50;5094303;28;20412;-64
2023/04/02 01:51:53;;;;;;;2.42;2.22;;;;;;;3.06;85.25;95385.59;5094150;28;20056;-65
2023/04/02 01:54:22;;;;;;;4.85;2.38;;;;;;;3.05;86.33;95394.22;5094041;28;20055;-66
2023/04/02 01:56:51;;;;;;;2.70;2.50;;;;;;;3.09;86.58;95395.84;5093948;28;20051;-64
2023/04/02 01:59:22;;;;;;;2.60;2.40;;;;;;;3.18;86.49;95393.88;5093456;28;20054;-65
2023/04/02 02:01:55;;;;;;;2.40;2.20;;;;;;;3.25;86.38;95388.50;5094076;28;20062;-64
2023/04/02 02:04:22;;;;;;;2.92;2.25;;;;;;;3.29;86.21;95395.28;5093901;28;20059;-63
2023/04/02 02:06:50;;;;;;;2.70;2.50;;;;;;;3.36;86.05;95395.13;5094109;28;20048;-64
2023/04/02 02:09:23;;;;;;;2.47;2.28;;;;;;;3.40;85.71;95407.06;5093896;28;20113;-64
2023/04/02 02:11:51;;;;;;;2.40;2.20;;;;;;;3.39;85.02;95406.25;5093753;28;20052;-62
2023/04/02 02:14:22;;;;;;;2.67;2.22;;;;;;;3.34;84.86;95402.09;5093791;28;20056;-64
2023/04/02 02:16:52;;;;;;;2.40;2.20;;;;;;;3.40;85.19;95404.47;5093720;28;20580;-66
2023/04/02 02:19:27;;;;;;;2.63;2.42;;;;;;;3.34;85.31;95409.84;5093613;28;20556;-62
2023/04/02 02:21:56;;;;;;;2.03;1.92;;;;;;;3.35;85.60;95409.81;5093556;28;20096;-65
2023/04/02 02:24:27;;;;;;;2.63;2.42;;;;;;;3.33;85.46;95405.53;5093533;28;20084;-63
2023/04/02 02:27:06;;;;;;;2.95;2.50;;;;;;;3.39;85.73;95407.97;5093512;28;20051;-64
2023/04/02 02:29:39;;;;;;;2.75;2.28;;;;;;;3.39;85.58;95415.72;5093488;28;20395;-66
2023/04/02 02:32:09;;;;;;;2.97;2.25;;;;;;;3.39;85.62;95400.22;5093452;28;20093;-65
2023/04/02 02:34:41;;;;;;;6.53;2.90;;;;;;;3.29;86.53;95397.03;5093395;28;20040;-65
2023/04/02 02:37:14;;;;;;;5.60;2.55;;;;;;;3.24;87.48;95394.59;5093426;28;20046;-64
2023/04/02 02:39:44;;;;;;;2.85;2.65;;;;;;;3.27;87.53;95398.81;5093283;28;20050;-64
2023/04/02 02:42:18;;;;;;;2.83;2.63;;;;;;;3.31;87.74;95389.25;5093362;28;20079;-63
2023/04/02 02:44:48;;;;;;;2.92;2.50;;;;;;;3.38;86.80;95407.13;5093268;28;20051;-65
2023/04/02 02:47:19;;;;;;;2.63;2.42;;;;;;;3.38;86.42;95407.13;5093306;28;20479;-63
2023/04/02 02:49:51;;;;;;;3.85;2.72;;;;;;;3.38;86.03;95391.63;5093221;28;20097;-64
2023/04/02 02:52:21;;;;;;;3.95;3.08;;;;;;;3.25;86.31;95398.84;5093262;28;20076;-65
2023/04/02 02:54:52;;;;;;;2.92;2.63;;;;;;;3.34;85.92;95402.09;5093208;28;20106;-63
2023/04/02 02:57:23;;;;;;;3.40;2.75;;;;;;;3.39;85.99;95407.97;5093155;28;20063;-63
2023/04/02 02:59:53;;;;;;;5.28;2.63;;;;;;;3.40;86.11;95397.59;5093194;28;20513;-63
2023/04/02 03:02:20;;;;;;;2.65;2.45;;;;;;;3.33;86.36;95406.41;5092689;28;20060;-63
2023/04/02 03:04:51;;;;;;;3.55;2.95;;;;;;;3.37;86.37;95400.25;5093120;28;20091;-63
2023/04/02 03:07:20;;;;;;;3.55;3.00;;;;;;;3.42;87.35;95400.13;5093088;28;20044;-66
2023/04/02 03:09:55;;;;;;;3.90;3.50;;;;;;;3.44;87.41;95395.78;5095452;28;20520;-65
2023/04/02 03:12:38;;;;;;;3.20;2.90;;;;;;;3.53;87.01;95397.25;5097318;28;20135;-64
2023/04/02 03:15:16;;;;;;;3.40;3.10;;;;;;;3.61;87.44;95400.44;5097250;28;20081;-63
2023/04/02 03:17:49;;;;;;;3.30;3.00;;;;;;;3.80;87.47;95402.53;5097073;28;20040;-65
2023/04/02 03:20:22;;;;;;;2.70;2.50;;;;;;;3.95;86.67;95411.56;5096999;28;20048;-62
2023/04/02 03:22:56;;;;;;;3.03;2.75;;;;;;;4.20;85.45;95397.00;5097208;28;20109;-65
2023/04/02 03:25:30;;;;;;;3.00;2.22;;;;;;;4.46;83.80;95405.72;5097043;28;20109;-65
2023/04/02 03:28:02;;;;;;;10.75;7.35;;;;;;;4.66;81.99;95408.50;5097019;28;20109;-63
2023/04/02 03:30:38;;;;;;;4.40;4.00;;;;;;;4.82;81.64;95413.19;5096989;28;20453;-65
2023/04/02 03:33:13;;;;;;;5.57;5.07;;;;;;;5.03;79.85;95403.00;5096809;28;20546;-65
2023/04/02 03:35:45;;;;;;;1.95;1.85;;;;;;;5.18;78.59;95399.03;5096746;28;20055;-65
2023/04/02 03:38:18;;;;;;;2.80;2.60;;;;;;;5.34;78.15;95401.94;5096940;28;20109;-63
2023/04/02 03:40:55;;;;;;;2.22;1.90;;;;;;;5.46;77.45;95407.56;5096718;28;20052;-64
2023/04/02 03:43:25;;;;;;;3.20;2.97;;;;;;;5.56;76.74;95414.13;5096652;28;20117;-63
2023/04/02 03:45:59;;;;;;;2.00;1.90;;;;;;;5.66;75.78;95414.66;5096580;28;20081;-64
2023/04/02 03:48:31;;;;;;;4.10;3.72;;;;;;;5.72;75.76;95413.59;5096651;28;20048;-64
2023/04/02 03:51:04;;;;;;;6.15;5.45;;;;;;;5.76;75.11;95422.94;5096540;28;20106;-62
2023/04/02 03:53:32;;;;;;;7.47;6.70;;;;;;;5.71;76.56;95409.28;5096442;28;20124;-64
2023/04/02 03:56:01;;;;;;;5.00;3.45;;;;;;;5.62;76.99;95411.31;5096394;28;20070;-62
2023/04/02 03:58:35;;;;;;;3.28;2.97;;;;;;;5.40;77.31;95411.25;5096646;28;20083;-65
2023/04/02 04:01:11;;;;;;;4.18;3.88;;;;;;;5.08;78.69;95413.22;5096287;28;20044;-65
2023/04/02 04:03:42;;;;;;;8.38;7.65;;;;;;;4.91;79.76;95414.63;5096059;28;20094;-63
2023/04/02 04:06:14;;;;;;;7.15;6.55;;;;;;;4.83;80.48;95419.22;5096270;28;20080;-63
2023/04/02 04:08:45;;;;;;;2.85;2.40;;;;;;;4.80;80.48;95421.03;5096100;28;20076;-64
2023/04/02 04:11:16;;;;;;;3.38;3.08;;;;;;;4.74;80.32;95425.53;5096044;28;20047;-65
2023/04/02 04:13:50;;;;;;;2.53;2.00;;;;;;;4.65;80.04;95427.56;5096045;28;20051;-63
2023/04/02 04:16:26;;;;;;;2.90;2.60;;;;;;;4.49;81.16;95427.16;5095990;28;20486;-65
2023/04/02 04:19:01;;;;;;;5.43;4.35;;;;;;;4.46;81.25;95435.06;5095852;28;20052;-62
2023/04/02 04:21:37;;;;;;;7.25;6.55;;;;;;;4.36;81.90;95436.25;5095124;28;20050;-62
2023/04/02 04:24:06;;;;;;;8.20;7.45;;;;;;;4.34;82.64;95443.19;5095889;28;20449;-62
2023/04/02 04:26:43;;;;;;;6.72;2.72;;;;;;;4.38;82.51;95437.03;5095999;28;20094;-63
2023/04/02 04:29:30;;;;;;;2.10;1.90;;;;;;;4.38;82.65;95435.28;5095839;28;20462;-64
2023/04/02 04:32:16;;;;;;;5.43;2.72;;;;;;;4.32;83.12;95444.97;5095782;28;20067;-65
2023/04/02 04:34:52;;;;;;;2.42;2.20;;;;;;;4.30;83.34;95447.63;5095618;28;20489;-65
2023/04/02 04:37:25;;;;;;;2.67;2.15;;;;;;;4.34;84.46;95458.75;5095577;28;20408;-63
2023/04/02 04:39:58;;;;;;;2.67;2.10;;;;;;;4.40;84.48;95458.56;5095582;28;20451;-64
2023/04/02 04:42:30;;;;;;;2.42;2.22;;;;;;;4.47;84.88;95461.78;5095449;28;20050;-65
2023/04/02 04:45:03;;;;;;;2.45;2.25;;;;;;;4.51;84.83;95453.03;5095491;28;20048;-65
2023/04/02 04:47:35;;;;;;;2.55;2.35;;;;;;;4.51;84.97;95456.47;5095503;28;20417;-62
2023/04/02 04:50:10;;;;;;;3.08;2.70;;;;;;;4.57;85.59;95458.00;5095446;28;20051;-64
2023/04/02 04:52:40;;;;;;;3.33;1.75;;;;;;;4.63;85.63;95451.78;5095363;28;20044;-64
2023/04/02 04:55:26;;;;;;;3.17;2.25;;;;;;;4.73;85.58;95455.78;5095277;28;20055;-67
2023/04/02 04:57:58;;;;;;;2.35;2.10;;;;;;;4.86;85.61;95469.22;5095326;28;20047;-65
2023/04/02 05:00:30;;;;;;;2.35;2.17;;;;;;;4.95;85.89;95462.88;5095157;28;20051;-64
2023/04/02 05:03:08;;;;;;;2.65;2.45;;;;;;;5.10;85.04;95465.84;5094895;28;20044;-65
2023/04/02 05:05:39;;;;;;;2.33;2.13;;;;;;;5.24;85.13;95460.22;5095103;28;20044;-61
2023/04/02 05:08:13;;;;;;;2.88;2.40;;;;;;;5.34;84.63;95466.78;5095051;28;20139;-65
2023/04/02 05:10:46;;;;;;;2.65;2.35;;;;;;;5.43;83.87;95452.63;5095080;28;20097;-65
2023/04/02 05:13:20;;;;;;;5.05;2.83;;;;;;;5.63;84.80;95467.47;5094875;28;20088;-64
2023/04/02 05:15:55;;;;;;;8.45;4.05;;;;;;;5.78;84.70;95475.66;5094902;28;20044;-61
2023/04/02 05:18:30;;;;;;;5.97;3.45;;;;;;;5.91;84.15;95479.50;5094857;28;20055;-62
2023/04/02 05:21:02;;;;;;;3.70;2.28;;;;;;;6.03;84.92;95480.78;5094971;28;20130;-63
2023/04/02 05:23:37;;;;;;;3.38;2.65;;;;;;;6.15;85.24;95489.91;5094780;28;20044;-63
2023/04/02 05:26:12;;;;;;;3.13;2.42;;;;;;;6.23;84.70;95478.38;5094695;28;20044;-63
2023/04/02 05:28:45;;;;;;;3.20;2.53;;;;;;;6.38;83.17;95490.78;5094639;28;20087;-61
2023/04/02 05:31:19;;;;;;;5.68;2.45;;;;;;;6.50;82.34;95494.66;5094639;28;20051;-62
2023/04/02 05:33:50;;;;;;;4.53;2.22;;;;;;;6.61;80.82;95495.97;5093420;28;20044;-61
2023/04/02 05:36:21;;;;;;;3.13;2.42;;;;;;;6.75;80.66;95490.25;5094345;28;20047;-61
2023/04/02 05:38:51;;;;;;;2.63;2.40;;;;;;;6.94;81.54;95491.22;5094352;28;20052;-65
2023/04/02 05:41:25;;;;;;;4.78;2.60;;;;;;;7.07;81.55;95501.09;5094217;28;20044;-65
2023/04/02 05:44:03;;;;;;;2.42;2.22;;;;;;;7.22;80.99;95504.84;5094295;28;20056;-62
2023/04/02 05:46:37;;;;;;;12.75;9.45;;;;;;;7.43;79.96;95497.91;5094216;28;20047;-63
2023/04/02 05:49:12;;;;;;;10.40;7.45;;;;;;;7.76;82.72;95498.28;5094210;28;20044;-65
2023/04/02 05:51:44;;;;;;;3.08;2.25;;;;;;;7.99;82.50;95502.47;5094164;28;20406;-63
2023/04/02 05:54:22;;;;;;;1.92;1.55;;;;;;;8.23;79.72;95507.50;5094262;28;20134;-64
2023/04/02 05:56:56;;;;;;;2.70;1.92;;;;;;;8.49;78.50;95513.28;5094051;28;20087;-65
2023/04/02 05:59:29;;;;;;;1.50;1.30;;;;;;;8.74;77.27;95517.41;5093934;28;20512;-63
2023/04/02 06:02:02;;;;;;;1.80;1.65;;;;;;;8.96;74.59;95522.44;5093768;28;20093;-64
2023/04/02 06:04:36;;;;;;;1.60;1.50;;;;;;;9.33;74.50;95519.78;5093882;28;20503;-64
2023/04/02 06:07:11;;;;;;;2.10;1.83;;;;;;;9.60;72.59;95526.31;5093969;28;20044;-62
2023/04/02 06:09:43;;;;;;;2.85;2.22;;;;;;;10.11;71.72;95517.66;5093898;28;20051;-62
2023/04/02 06:12:23;;;;;;;10.48;3.55;;;;;;;10.76;69.25;95525.59;5093749;28;20040;-64
2023/04/02 06:14:51;;;;;;;5.18;2.60;;;;;;;11.28;64.88;95521.84;5093693;28;20048;-65
2023/04/02 06:17:20;;;;;;;2.80;2.38;;;;;;;11.61;66.24;95510.34;5093655;28;20086;-64
2023/04/02 06:19:53;;;;;;;2.88;2.30;;;;;;;11.84;65.79;95516.03;5093496;28;20055;-64
2023/04/02 06:22:31;;;;;;;2.75;2.55;;;;;;;11.90;66.31;95512.19;5093390;28;20508;-62
2023/04/02 06:25:03;;;;;;;3.92;2.38;;;;;;;12.03;64.02;95519.28;5093559;28;20050;-64
2023/04/02 06:27:36;;;;;;;2.97;1.90;;;;;;;12.22;61.66;95529.56;5093604;28;20044;-64
2023/04/02 06:30:07;;;;;;;2.10;1.85;;;;;;;12.46;59.98;95534.25;5093609;28;20489;-62
2023/04/02 06:32:36;;;;;;;3.50;1.38;;;;;;;12.69;59.17;95534.56;5093680;28;20560;-64
2023/04/02 06:35:06;;;;;;;8.18;3.75;;;;;;;12.93;58.12;95547.09;5093384;28;20395;-62
2023/04/02 06:37:44;;;;;;;4.85;2.80;;;;;;;13.16;57.16;95545.66;5093419;28;20493;-61
2023/04/02 06:40:33;;;;;;;1.70;1.60;;;;;;;13.42;56.03;95542.28;5093305;28;20413;-62
2023/04/02 06:43:06;;;;;;;3.15;2.13;;;;;;;13.76;54.44;95543.50;5093351;28;20490;-61
2023/04/02 06:45:40;;;;;;;2.30;1.70;;;;;;;14.00;54.33;95532.28;5093089;28;20052;-63
2023/04/02 06:48:15;;;;;;;2.30;1.90;;;;;;;14.04;54.74;95540.81;5093201;28;20047;-62
2023/04/02 06:50:48;;;;;;;3.95;2.17;;;;;;;14.05;52.82;95539.88;5093178;28;20524;-62
2023/04/02 06:53:22;;;;;;;3.88;2.10;;;;;;;14.18;53.72;95546.94;5089300;28;20051;-64
2023/04/02 06:55:52;;;;;;;2.60;2.05;;;;;;;14.27;51.83;95547.13;5073216;28;20394;-64
2023/04/02 06:58:21;;;;;;;1.70;1.58;;;;;;;14.37;52.52;95557.03;5073157;28;20102;-63
2023/04/02 07:00:51;;;;;;;3.40;1.30;;;;;;;14.53;51.98;95568.19;5072944;28;20101;-62
2023/04/02 07:03:24;;;;;;;1.30;1.20;;;;;;;14.63;51.17;95565.72;5072790;28;20053;-63
2023/04/02 07:05:57;;;;;;;1.90;1.20;;;;;;;14.68;52.25;95569.81;5072868;28;20048;-64
2023/04/02 07:08:29;;;;;;;3.83;1.65;;;;;;;14.57;50.73;95570.59;5073059;28;20052;-64
2023/04/02 07:10:58;;;;;;;1.30;1.05;;;;;;;14.39;51.03;95574.38;5072921;28;20087;-64
2023/04/02 07:13:26;;;;;;;3.78;1.40;;;;;;;14.30;52.65;95567.13;5072839;28;20074;-62
2023/04/02 07:15:55;;;;;;;3.33;1.40;;;;;;;14.38;53.07;95569.22;5072844;28;20485;-65
2023/04/02 07:18:26;;;;;;;4.85;1.35;;;;;;;14.45;52.13;95577.56;5072753;28;20052;-63
2023/04/02 07:20:56;;;;;;;1.88;1.10;;;;;;;14.55;51.27;95578.59;5072702;28;20059;-64
2023/04/02 07:23:26;;;;;;;2.47;1.38;;;;;;;14.52;51.03;95581.44;5072855;28;20131;-62
2023/04/02 07:25:55;;;;;;;1.17;1.00;;;;;;;14.55;49.48;95581.22;5072880;28;20048;-65
2023/04/02 07:28:23;;;;;;;1.50;1.15;;;;;;;14.45;52.53;95573.09;5072755;28;20476;-62
2023/04/02 07:30:53;;;;;;;1.52;0.90;;;;;;;14.52;53.80;95581.44;5072678;28;20044;-62
2023/04/02 07:33:23;;;;;;;0.70;0.70;;;;;;;14.48;51.97;95591.31;5072764;28;20044;-62
2023/04/02 07:35:51;;;;;;;1.58;0.88;;;;;;;14.53;51.11;95593.63;5072914;28;20052;-63
2023/04/02 07:38:20;;;;;;;1.15;0.80;;;;;;;14.57;49.97;95603.00;5072716;28;20068;-62
2023/04/02 07:40:49;;;;;;;1.95;1.38;;;;;;;14.49;50.39;95600.06;5072495;28;20049;-64
2023/04/02 07:43:17;;;;;;;1.73;0.88;;;;;;;14.41;51.94;95600.59;5072644;28;20052;-63
2023/04/02 07:45:52;;;;;;;0.80;0.80;;;;;;;14.53;50.74;95599.75;5072477;28;20046;-61
2023/04/02 07:48:22;;;;;;;2.60;1.23;;;;;;;14.63;50.37;95601.75;5072342;28;20048;-60
2023/04/02 07:50:50;;;;;;;2.20;1.35;;;;;;;14.71;49.15;95596.78;5072541;28;20474;-63
2023/04/02 07:53:29;;;;;;;1.00;0.90;;;;;;;14.99;49.67;95591.41;5072460;28;20071;-61
2023/04/02 07:56:01;;;;;;;1.15;0.70;;;;;;;14.95;48.83;95592.56;5073271;28;20106;-64
2023/04/02 07:58:30;;;;;;;1.95;1.20;;;;;;;15.02;49.91;95593.81;5075898;28;20054;-62
2023/04/02 08:00:57;;;;;;;1.75;1.10;;;;;;;15.10;50.51;95582.72;5075985;28;20044;-63
2023/04/02 08:03:26;;;;;;;1.00;0.82;;;;;;;15.08;49.19;95593.38;5075861;28;20045;-63
2023/04/02 08:05:56;;;;;;;2.28;0.80;;;;;;;15.42;47.43;95584.84;5076122;28;20102;-64
2023/04/02 08:08:26;;;;;;;1.38;1.25;;;;;;;15.65;46.10;95595.47;5076057;28;20048;-63
2023/04/02 08:10:54;;;;;;;1.03;0.70;;;;;;;15.75;46.58;95588.56;5076006;28;20139;-61
2023/04/02 08:13:26;;;;;;;0.95;0.85;;;;;;;15.94;46.02;95586.34;5075804;28;20045;-63
2023/04/02 08:15:54;;;;;;;1.65;0.98;;;;;;;15.88;44.76;95591.16;5075928;28;20052;-62
2023/04/02 08:18:23;;;;;;;3.75;1.25;;;;;;;15.84;44.96;95588.84;5075778;28;20486;-62
2023/04/02 08:20:51;;;;;;;1.52;1.00;;;;;;;16.00;46.70;95585.94;5075815;28;20060;-63
2023/04/02 08:23:21;;;;;;;0.88;0.70;;;;;;;16.23;46.25;95599.19;5075529;28;20091;-62
2023/04/02 08:25:51;;;;;;;0.95;0.80;;;;;;;16.64;45.18;95589.03;5075715;28;20040;-61
2023/04/02 08:28:19;;;;;;;1.88;0.90;;;;;;;16.78;42.97;95594.09;5075467;28;20083;-63
2023/04/02 08:30:51;;;;;;;2.58;0.77;;;;;;;17.00;42.96;95597.66;5075717;28;20060;-63
2023/04/02 08:33:20;;;;;;;1.02;0.70;;;;;;;17.22;42.33;95598.63;5075373;28;20045;-63
2023/04/02 08:35:49;;;;;;;2.10;0.85;;;;;;;17.30;41.12;95598.88;5075449;28;20052;-63
2023/04/02 08:38:19;;;;;;;0.70;0.70;;;;;;;17.43;40.39;95597.88;5075276;28;20045;-62
2023/04/02 08:40:52;;;;;;;1.42;0.75;;;;;;;17.52;42.03;95593.66;5075164;28;20135;-61
2023/04/02 08:43:50;;;;;;;2.85;0.85;;;;;;;17.84;40.69;95600.75;5075218;28;20110;-62
2023/04/02 08:46:26;;;;;;;0.88;0.60;;;;;;;18.16;38.83;95599.91;5075150;28;20509;-62
2023/04/02 08:48:58;;;;;;;0.68;0.60;;;;;;;18.44;38.91;95591.44;5075070;28;20049;-61
2023/04/02 08:51:28;;;;;;;1.48;0.70;;;;;;;18.34;40.92;95598.47;5075113;28;20086;-65
2023/04/02 08:54:00;;;;;;;0.45;0.45;;;;;;;18.33;35.99;95596.81;5075027;28;20080;-64
2023/04/02 08:56:33;;;;;;;3.65;0.60;;;;;;;18.37;36.32;95591.13;5075211;28;20040;-62
2023/04/02 08:59:07;;;;;;;0.68;0.68;;;;;;;18.31;39.15;95589.81;5075095;28;20071;-63
2023/04/02 09:01:45;;;;;;;1.77;0.75;;;;;;;18.49;36.62;95591.91;5074963;28;20052;-64
2023/04/02 09:04:18;;;;;;;0.70;0.57;;;;;;;18.69;36.64;95590.16;5074750;28;20052;-62
2023/04/02 09:06:47;;;;;;;0.55;0.43;;;;;;;18.69;37.11;95598.13;5074600;28;20135;-61
2023/04/02 09:09:16;;;;;;;1.15;0.70;;;;;;;18.90;38.16;95593.75;5074902;28;20504;-64
2023/04/02 09:11:53;;;;;;;0.95;0.75;;;;;;;19.26;37.50;95598.66;5074767;28;20048;-64
2023/04/02 09:14:25;;;;;;;0.88;0.52;;;;;;;19.38;37.61;95594.06;5074699;28;20044;-62
2023/04/02 09:16:55;;;;;;;1.50;0.68;;;;;;;19.18;35.02;95596.66;5074815;28;20052;-64
2023/04/02 09:19:25;;;;;;;2.10;0.70;;;;;;;19.13;37.58;95601.53;5074769;28;20132;-65
2023/04/02 09:22:07;;;;;;;0.43;0.43;;;;;;;19.36;35.84;95596.00;5074554;28;20052;-64
2023/04/02 09:24:36;;;;;;;0.47;0.47;;;;;;;19.16;36.22;95596.81;5074613;28;20056;-64
2023/04/02 09:27:16;;;;;;;3.50;0.70;;;;;;;19.38;36.65;95599.38;5074778;28;20490;-62
2023/04/02 09:29:45;;;;;;;0.77;0.57;;;;;;;19.41;38.49;95602.56;5074349;28;20056;-64
2023/04/02 09:32:39;;;;;;;0.60;0.50;;;;;;;19.31;33.05;95599.06;5074390;28;20098;-62
2023/04/02 09:35:12;;;;;;;0.50;0.50;;;;;;;19.42;35.33;95590.16;5074365;28;20128;-62
2023/04/02 09:37:40;;;;;;;2.58;0.70;;;;;;;19.41;35.68;95585.81;5074203;28;20049;-66
2023/04/02 09:40:25;;;;;;;2.75;0.65;;;;;;;19.64;36.92;95597.03;5074228;28;20148;-63
2023/04/02 09:43:09;;;;;;;1.33;0.63;;;;;;;19.83;36.43;95590.91;5074150;28;20054;-64
2023/04/02 09:45:37;;;;;;;0.57;0.50;;;;;;;19.72;33.84;95588.41;5074368;28;20048;-62
2023/04/02 09:48:18;;;;;;;0.82;0.70;;;;;;;19.46;35.61;95586.25;5074083;28;20044;-62
2023/04/02 09:50:45;;;;;;;1.65;0.52;;;;;;;19.40;35.80;95586.81;5073975;28;20044;-64
2023/04/02 09:53:29;;;;;;;0.85;0.60;;;;;;;19.47;34.04;95579.97;5074052;28;20044;-65
2023/04/02 09:56:18;;;;;;;0.88;0.60;;;;;;;19.31;35.78;95593.75;5071976;28;20048;-64
2023/04/02 09:59:03;;;;;;;1.77;0.52;;;;;;;19.52;36.40;95576.91;5073704;28;20048;-65
2023/04/02 10:01:33;;;;;;;1.38;0.68;;;;;;;19.36;36.02;95585.41;5073711;28;20057;-63
2023/04/02 10:04:02;;;;;;;0.60;0.60;;;;;;;19.36;35.69;95577.44;5073637;28;20044;-66
2023/04/02 10:06:30;;;;;;;1.30;0.55;;;;;;;19.40;35.97;95578.84;5073987;28;20044;-62
2023/04/02 10:08:59;;;;;;;1.50;0.65;;;;;;;19.49;37.01;95569.22;5073677;28;20559;-61
2023/04/02 10:11:31;;;;;;;0.55;0.40;;;;;;;19.56;35.29;95568.53;5073790;28;20092;-65
2023/04/02 10:14:02;;;;;;;1.15;0.60;;;;;;;19.67;35.29;95562.28;5073743;28;20055;-62
2023/04/02 10:16:32;;;;;;;0.60;0.60;;;;;;;19.99;34.97;95567.44;5073581;28;20056;-64
2023/04/02 10:19:07;;;;;;;2.13;0.70;;;;;;;20.13;33.90;95561.72;5073017;28;20397;-62
2023/04/02 10:21:37;;;;;;;1.40;0.70;;;;;;;20.04;34.16;95560.75;5072994;28;20391;-61
2023/04/02 10:24:12;;;;;;;1.42;1.20;;;;;;;19.92;34.32;95559.19;5073239;28;20044;-64
2023/04/02 10:26:56;;;;;;;0.70;0.43;;;;;;;20.10;31.79;95555.88;5073419;28;20056;-62
2023/04/02 10:29:43;;;;;;;0.68;0.40;;;;;;;20.08;31.87;95556.84;5073347;28;20054;-63
2023/04/02 10:32:18;;;;;;;0.43;0.43;;;;;;;20.44;34.09;95552.72;5073435;28;20050;-62
2023/04/02 10:34:56;;;;;;;0.65;0.35;;;;;;;20.49;30.80;95554.91;5073210;28;20049;-61
2023/04/02 10:38:00;;;;;;;0.52;0.52;;;;;;;20.51;30.59;95558.28;5073080;28;20040;-60
2023/04/02 10:40:29;;;;;;;0.85;0.50;;;;;;;20.26;30.47;95550.78;5072972;28;20090;-65
2023/04/02 10:43:16;;;;;;;1.50;1.23;;;;;;;20.38;29.18;95550.63;5073064;28;20432;-62
2023/04/02 10:45:51;;;;;;;1.83;0.80;;;;;;;20.57;28.77;95547.94;5073313;28;20502;-59
2023/04/02 10:48:31;;;;;;;2.00;0.38;;;;;;;20.52;28.06;95536.03;5073073;28;20084;-60
2023/04/02 10:51:03;;;;;;;1.67;0.57;;;;;;;20.67;28.86;95528.44;5073115;28;20080;-61
2023/04/02 10:53:38;;;;;;;2.58;0.93;;;;;;;20.76;32.34;95529.38;5073185;28;20076;-64
2023/04/02 10:56:09;;;;;;;0.80;0.80;;;;;;;20.71;32.75;95532.50;5072907;28;20040;-64
2023/04/02 10:58:44;;;;;;;0.85;0.60;;;;;;;20.69;29.67;95529.13;5072932;28;20087;-61
2023/04/02 11:01:20;;;;;;;2.15;0.77;;;;;;;20.63;31.92;95530.56;5072990;28;20102;-61
2023/04/02 11:03:52;;;;;;;0.60;0.50;;;;;;;20.71;31.15;95533.31;5072467;28;20044;-64
2023/04/02 11:06:24;;;;;;;0.85;0.75;;;;;;;20.70;31.80;95531.66;5072803;28;20041;-61
2023/04/02 11:08:55;;;;;;;1.23;0.57;;;;;;;20.94;30.72;95540.94;5072923;28;20113;-63
2023/04/02 11:11:26;;;;;;;0.68;0.65;;;;;;;21.06;31.31;95544.25;5072907;28;20504;-65
2023/04/02 11:13:58;;;;;;;0.75;0.65;;;;;;;21.18;31.41;95541.38;5072906;28;20059;-61
2023/04/02 11:16:28;;;;;;;1.40;0.60;;;;;;;21.28;28.51;95530.69;5072804;28;20436;-62
2023/04/02 11:19:31;;;;;;;1.02;0.70;;;;;;;21.27;31.37;95544.94;5072878;28;20051;-63
2023/04/02 11:21:59;;;;;;;0.52;0.50;;;;;;;21.08;29.98;95530.81;5079451;28;20504;-63
2023/04/02 11:24:35;;;;;;;1.00;0.50;;;;;;;20.98;31.77;95530.03;5093011;28;20044;-60
2023/04/02 11:27:27;;;;;;;0.93;0.60;;;;;;;20.96;28.87;95517.69;5092994;28;20094;-60
2023/04/02 11:30:03;;;;;;;2.08;0.80;;;;;;;20.74;29.31;95513.59;5093809;28;20089;-61
2023/04/02 11:32:43;;;;;;;0.50;0.43;;;;;;;20.68;30.41;95506.22;5096717;28;20083;-61
2023/04/02 11:35:35;;;;;;;0.60;0.40;;;;;;;20.63;27.14;95514.63;5096898;28;20570;-60
2023/04/02 11:38:23;;;;;;;0.30;0.30;;;;;;;20.79;26.63;95511.34;5076802;28;20044;-60
2023/04/02 11:40:51;;;;;;;1.38;0.50;;;;;;;20.69;28.41;95505.22;5076452;28;20055;-63
2023/04/02 11:43:48;;;;;;;0.57;0.40;;;;;;;20.76;26.41;95510.78;5076350;28;20102;-60
2023/04/02 11:46:44;;;;;;;0.30;0.30;;;;;;;20.55;22.70;95493.25;5076260;28;20052;-62
2023/04/02 11:49:50;;;;;;;0.50;0.40;;;;;;;20.25;28.75;95473.94;5076507;28;20052;-64
2023/04/02 11:52:38;;;;;;;0.60;0.47;;;;;;;20.30;30.06;95490.28;5047286;28;20095;-63
2023/04/02 11:55:29;;;;;;;1.45;0.70;;;;;;;20.19;28.51;95500.09;5076081;28;20049;-63
2023/04/02 11:58:22;;;;;;;0.47;0.38;;;;;;;20.40;27.22;95498.22;5076147;28;20055;-62
2023/04/02 12:01:33;;;;;;;1.35;0.45;;;;;;;20.69;26.89;95495.47;5076166;28;20057;-61
2023/04/02 12:04:38;;;;;;;0.68;0.30;;;;;;;20.75;26.89;95501.16;5076102;28;20040;-62
2023/04/02 12:07:35;;;;;;;1.52;1.42;;;;;;;20.67;26.90;95499.22;5076185;28;20084;-61
2023/04/02 12:10:05;;;;;;;0.30;0.30;;;;;;;20.60;26.69;95500.78;5076879;28;20391;-60